createdAt,value
2022-10-16T00:02:15.889Z,17.40
2022-10-16T00:07:56.625Z,17.37
2022-10-16T00:18:34.314Z,17.35
2022-10-16T00:23:49.831Z,17.32
2022-10-16T00:29:17.734Z,17.38
2022-10-16T00:34:27.662Z,17.44
2022-10-16T00:39:36.839Z,17.51
2022-10-16T00:44:52.406Z,17.52
2022-10-16T00:50:08.724Z,17.49
2022-10-16T00:55:18.866Z,17.46
2022-10-16T01:00:37.507Z,17.45
2022-10-16T01:05:49.405Z,17.40
2022-10-16T01:11:00.653Z,17.41
2022-10-16T01:16:16.012Z,17.41
2022-10-16T01:27:10.490Z,17.35
2022-10-16T01:32:23.590Z,17.35
2022-10-16T01:37:42.565Z,17.34
2022-10-16T01:53:30.491Z,17.27
2022-10-16T01:58:44.133Z,17.26
2022-10-16T02:03:54.498Z,17.22
2022-10-16T02:09:03.879Z,17.19
2022-10-16T02:14:31.346Z,17.18
2022-10-16T02:19:36.739Z,17.16
2022-10-16T02:24:48.239Z,17.21
2022-10-16T02:30:28.479Z,17.24
2022-10-16T02:35:43.054Z,17.18
2022-10-16T02:46:34.277Z,17.23
2022-10-16T02:51:45.943Z,17.18
2022-10-16T02:57:00.396Z,17.14
2022-10-16T03:02:32.757Z,17.15
2022-10-16T03:07:45.666Z,17.15
2022-10-16T03:12:54.815Z,17.11
2022-10-16T03:18:05.360Z,17.10
2022-10-16T03:28:39.382Z,17.09
2022-10-16T03:33:50.574Z,17.08
2022-10-16T03:38:59.298Z,17.10
2022-10-16T03:44:11.444Z,17.09
2022-10-16T03:49:21.142Z,17.07
2022-10-16T03:54:29.178Z,17.05
2022-10-16T03:59:35.672Z,17.05
2022-10-16T04:04:46.381Z,17.07
2022-10-16T04:10:00.709Z,17.05
2022-10-16T04:15:21.468Z,17.06
2022-10-16T04:20:33.995Z,17.09
2022-10-16T04:25:56.935Z,17.08
2022-10-16T04:31:11.248Z,17.04
2022-10-16T04:36:35.033Z,16.97
2022-10-16T04:41:51.345Z,16.93
2022-10-16T04:47:06.602Z,16.88
2022-10-16T04:52:24.517Z,16.87
2022-10-16T04:57:35.974Z,16.88
2022-10-16T05:02:42.627Z,16.86
2022-10-16T05:07:48.794Z,16.86
2022-10-16T05:13:05.304Z,16.86
2022-10-16T05:18:11.789Z,16.81
2022-10-16T05:23:36.215Z,16.83
2022-10-16T05:28:47.613Z,16.85
2022-10-16T05:34:04.641Z,16.87
2022-10-16T05:39:13.712Z,16.88
2022-10-16T05:44:24.641Z,16.88
2022-10-16T05:49:37.876Z,16.89
2022-10-16T06:00:34.009Z,16.93
2022-10-16T06:05:49.482Z,16.98
2022-10-16T06:11:06.670Z,17.06
2022-10-16T06:16:13.717Z,17.09
2022-10-16T06:21:23.679Z,17.17
2022-10-16T06:26:47.871Z,17.27
2022-10-16T06:32:09.797Z,17.31
2022-10-16T06:37:21.612Z,17.34
2022-10-16T06:42:28.952Z,17.39
2022-10-16T06:47:37.084Z,17.46
2022-10-16T06:52:44.751Z,17.49
2022-10-16T06:57:51.883Z,17.51
2022-10-16T07:02:59.718Z,17.55
2022-10-16T07:08:07.708Z,17.60
2022-10-16T07:13:26.772Z,17.71
2022-10-16T07:18:35.862Z,17.79
2022-10-16T07:23:56.950Z,17.93
2022-10-16T07:29:46.876Z,18.04
2022-10-16T07:35:01.486Z,18.07
2022-10-16T07:40:21.970Z,18.12
2022-10-16T07:45:30.455Z,18.17
2022-10-16T07:50:44.050Z,18.29
2022-10-16T07:56:01.972Z,18.54
2022-10-16T08:01:11.103Z,18.71
2022-10-16T08:06:26.932Z,18.93
2022-10-16T08:11:41.225Z,19.34
2022-10-16T08:16:52.745Z,19.81
2022-10-16T08:21:59.508Z,20.25
2022-10-16T08:27:05.939Z,20.48
2022-10-16T08:32:26.719Z,20.49
2022-10-16T08:37:39.470Z,20.52
2022-10-16T08:42:59.679Z,20.67
2022-10-16T08:48:21.579Z,20.88
2022-10-16T08:53:43.317Z,20.83
2022-10-16T08:58:55.271Z,20.92
2022-10-16T09:04:37.899Z,21.20
2022-10-16T09:10:15.727Z,21.41
2022-10-16T09:15:33.128Z,21.72
2022-10-16T09:20:45.359Z,21.88
2022-10-16T09:25:55.918Z,21.83
2022-10-16T09:31:04.091Z,21.85
2022-10-16T09:36:09.020Z,21.87
2022-10-16T09:41:23.305Z,21.96
2022-10-16T09:46:32.680Z,22.24
2022-10-16T09:51:44.591Z,22.39
2022-10-16T09:56:55.884Z,22.43
2022-10-16T10:02:14.973Z,22.58
2022-10-16T10:07:50.438Z,22.42
2022-10-16T10:13:38.005Z,22.52
2022-10-16T10:19:05.831Z,22.65
2022-10-16T10:24:19.573Z,22.67
2022-10-16T10:29:38.869Z,22.75
2022-10-16T10:34:57.324Z,22.67
2022-10-16T10:40:17.988Z,22.63
2022-10-16T10:46:00.094Z,22.50
2022-10-16T10:57:12.270Z,22.37
2022-10-16T11:02:32.510Z,22.39
2022-10-16T11:07:43.267Z,22.38
2022-10-16T11:13:02.117Z,22.44
2022-10-16T11:18:28.046Z,22.45
2022-10-16T11:29:32.677Z,22.58
2022-10-16T11:34:52.391Z,22.60
2022-10-16T11:40:09.553Z,22.71
2022-10-16T11:45:28.165Z,22.73
2022-10-16T11:50:47.461Z,22.77
2022-10-16T11:55:55.628Z,22.75
2022-10-16T12:01:19.539Z,22.75
2022-10-16T12:06:42.558Z,22.73
2022-10-16T12:11:56.427Z,22.69
2022-10-16T12:17:18.002Z,22.72
2022-10-16T12:27:59.025Z,22.63
2022-10-16T12:33:21.270Z,22.54
2022-10-16T12:38:40.363Z,22.46
2022-10-16T12:43:51.931Z,22.40
2022-10-16T12:49:31.593Z,22.46
2022-10-16T12:54:52.636Z,22.42
2022-10-16T13:00:15.427Z,22.38
2022-10-16T13:05:37.911Z,22.39
2022-10-16T13:11:07.751Z,22.40
2022-10-16T13:16:27.790Z,22.38
2022-10-16T13:21:53.231Z,22.28
2022-10-16T13:27:15.621Z,22.25
2022-10-16T13:32:35.895Z,22.19
2022-10-16T13:37:56.331Z,22.13
2022-10-16T13:43:11.194Z,22.11
2022-10-16T13:48:25.797Z,22.06
2022-10-16T13:53:33.661Z,21.99
2022-10-16T13:58:49.839Z,21.96
2022-10-16T14:04:15.119Z,21.95
2022-10-16T14:09:38.936Z,21.99
2022-10-16T14:15:01.877Z,21.97
2022-10-16T14:20:19.086Z,21.99
2022-10-16T14:25:41.255Z,21.98
2022-10-16T14:30:57.059Z,21.98
2022-10-16T14:36:09.550Z,22.00
2022-10-16T14:41:23.179Z,21.92
2022-10-16T14:46:42.283Z,21.86
2022-10-16T14:51:52.010Z,21.78
2022-10-16T14:57:02.597Z,21.72
2022-10-16T15:02:47.743Z,21.63
2022-10-16T15:08:02.371Z,21.48
2022-10-16T15:13:25.494Z,21.41
2022-10-16T15:18:34.963Z,21.28
2022-10-16T15:23:51.868Z,21.20
2022-10-16T15:29:05.195Z,21.10
2022-10-16T15:34:16.780Z,21.00
2022-10-16T15:39:39.078Z,21.07
2022-10-16T15:44:53.861Z,21.07
2022-10-16T15:50:00.128Z,21.07
2022-10-16T15:55:09.425Z,21.09
2022-10-16T16:00:24.190Z,21.05
2022-10-16T16:05:32.628Z,20.99
2022-10-16T16:10:53.543Z,20.82
2022-10-16T16:21:31.636Z,20.65
2022-10-16T16:26:45.153Z,20.57
2022-10-16T16:32:00.748Z,20.46
2022-10-16T16:37:29.058Z,20.40
2022-10-16T16:42:36.762Z,20.37
2022-10-16T16:47:42.486Z,20.24
2022-10-16T16:52:54.649Z,20.17
2022-10-16T16:58:04.956Z,20.05
2022-10-16T17:03:19.149Z,19.96
2022-10-16T17:08:41.195Z,19.88
2022-10-16T17:13:55.753Z,19.87
2022-10-16T17:19:26.672Z,19.84
2022-10-16T17:24:36.103Z,19.84
2022-10-16T17:29:46.468Z,19.85
2022-10-16T17:35:07.286Z,19.82
2022-10-16T17:40:26.078Z,19.84
2022-10-16T17:45:49.707Z,19.81
2022-10-16T17:51:14.137Z,19.78
2022-10-16T17:56:29.107Z,19.71
2022-10-16T18:01:50.424Z,19.65
2022-10-16T18:06:57.853Z,19.57
2022-10-16T18:12:08.129Z,19.51
2022-10-16T18:22:55.214Z,19.43
2022-10-16T18:28:00.349Z,19.42
2022-10-16T18:33:12.919Z,19.38
2022-10-16T18:38:23.246Z,19.37
2022-10-16T18:43:30.559Z,19.39
2022-10-16T18:48:41.976Z,19.40
2022-10-16T18:53:54.435Z,19.38
2022-10-16T18:59:07.397Z,19.35
2022-10-16T19:04:26.086Z,19.38
2022-10-16T19:09:52.085Z,19.39
2022-10-16T19:14:58.685Z,19.37
2022-10-16T19:20:05.264Z,19.38
2022-10-16T19:25:12.790Z,19.39
2022-10-16T19:30:19.563Z,19.41
2022-10-16T19:35:43.765Z,19.41
2022-10-16T19:40:57.835Z,19.37
2022-10-16T19:46:06.521Z,19.37
2022-10-16T19:51:30.354Z,19.36
2022-10-16T19:56:39.468Z,19.36
2022-10-16T20:01:47.332Z,19.36
2022-10-16T20:12:08.303Z,19.34
2022-10-16T20:17:28.679Z,19.29
2022-10-16T20:22:35.288Z,19.25
2022-10-16T20:27:48.479Z,19.20
2022-10-16T20:33:00.701Z,19.11
2022-10-16T20:38:31.767Z,19.09
2022-10-16T20:43:38.003Z,19.02
2022-10-16T20:48:50.237Z,19.01
2022-10-16T20:54:00.564Z,18.99
2022-10-16T20:59:05.793Z,18.94
2022-10-16T21:04:17.891Z,18.87
2022-10-16T21:09:40.439Z,18.81
2022-10-16T21:15:13.334Z,18.77
2022-10-16T21:20:24.951Z,18.76
2022-10-16T21:25:34.543Z,18.75
2022-10-16T21:30:40.601Z,18.73
2022-10-16T21:35:48.240Z,18.74
2022-10-16T21:41:01.093Z,18.76
2022-10-16T21:46:26.986Z,18.78
2022-10-16T21:51:32.948Z,18.77
2022-10-16T21:56:48.894Z,18.78
2022-10-16T22:02:04.885Z,18.76
2022-10-16T22:07:20.342Z,18.77
2022-10-16T22:12:32.510Z,18.76
2022-10-16T22:17:41.969Z,18.72
2022-10-16T22:22:49.206Z,18.68
2022-10-16T22:27:55.782Z,18.68
2022-10-16T22:33:13.220Z,18.71
2022-10-16T22:38:21.257Z,18.68
2022-10-16T22:43:28.198Z,18.65
2022-10-16T22:48:36.552Z,18.62
2022-10-16T22:53:49.565Z,18.57
2022-10-16T22:59:00.625Z,18.45
2022-10-16T23:04:24.383Z,18.33
2022-10-16T23:09:44.277Z,18.21
2022-10-16T23:15:01.588Z,18.10
2022-10-16T23:20:12.531Z,18.07
2022-10-16T23:25:21.919Z,17.97
2022-10-16T23:30:35.005Z,17.93
2022-10-16T23:35:42.686Z,17.85
2022-10-16T23:41:05.090Z,17.82
2022-10-16T23:46:19.668Z,17.75
2022-10-16T23:51:27.055Z,17.67
